Pagrindinis puslapis
METAR-TAF:

METAR-TAF

Oro uostai :

Ahvazas, Iranas

platuma: 31-20N, ilguma: 048-40E, Aukštis: 20 m

Dabartinis oras

Ataskaita buvo paskelbta 21 minutes, ne 10:30 UTC
Vėjas 4 kt iš Vakarų/Šiaurės Vakarų
Temperatūra 40°C
Drėgmė 22%
Slėgis 1012 hPa
Matomumas: 6000 m

METAR: OIAW 141030Z 30004KT 6000 NSC 40/14 Q1012

Laikas: 14:21 (10:51 UTC)

Prognozė

Ataskaita buvo paskelbta 2 valandos ir 51 minutes, ne 08:00 UTC
Prognozė galioja nuo 14 metu 06 UTC su 15 metu 12 UTC
Vėjas 6 kt iš Pietų
Matomumas: 7000 m
Laikinai
nuo 14 metu 06 UTC su 14 metu 09 UTC
Matomumas: 5000 m
migla
Laikinai
nuo 14 metu 10 UTC su 14 metu 14 UTC
Vėjas 16 kt iš Vakarų/Šiaurės Vakarų
Išsisklaidę debesys ne aukštis 10000 ft

TAF: OIAW 140800Z 1406/1512 18006KT 7000 NSC TEMPO 1406/1409 5000 HZ TEMPO 1410/1414 29016KT SCT100

Orai ataskaitas ir orų prognozės (METAR, TAF).

turimą stotys yra geltonos ir raudonos taškus žemėlapyje.

Perkelti pele per norėdami pamatyti stoties vardą.

Tada spustelėkite, norėdami matyti oro stebėjimo ir prognozės.

Norėdami pakeisti žemėlapį: spustelėkite ant žalios mygtukų su juodo kryžiaus žemyn,; žalią mygtuką su brūkšneliu, jei norite nutolinti; arba žalių rodyklių gretimoms žemėlapius.


METAR-TAF: